createdAt,value
2023-06-23T00:02:36.595Z,26.49
2023-06-23T00:07:38.390Z,26.44
2023-06-23T00:12:42.401Z,26.45
2023-06-23T00:17:47.495Z,26.33
2023-06-23T00:22:48.990Z,26.37
2023-06-23T00:27:50.423Z,26.28
2023-06-23T00:32:51.868Z,26.23
2023-06-23T00:37:54.632Z,26.17
2023-06-23T00:42:57.324Z,26.20
2023-06-23T00:47:58.788Z,26.18
2023-06-23T00:53:00.453Z,26.13
2023-06-23T00:58:01.935Z,26.12
2023-06-23T01:03:04.425Z,26.05
2023-06-23T01:08:31.377Z,26.09
2023-06-23T01:13:53.823Z,26.07
2023-06-23T01:19:12.515Z,26.04
2023-06-23T01:24:30.489Z,26.05
2023-06-23T01:29:32.737Z,25.98
2023-06-23T01:34:45.998Z,26.03
2023-06-23T01:39:51.334Z,26.02
2023-06-23T01:44:56.265Z,25.96
2023-06-23T01:49:59.294Z,26.01
2023-06-23T01:55:00.755Z,26.01
2023-06-23T02:00:02.463Z,25.98
2023-06-23T02:05:04.882Z,26.00
2023-06-23T02:10:07.069Z,25.97
2023-06-23T02:15:09.147Z,25.92
2023-06-23T02:20:17.094Z,25.93
2023-06-23T02:25:18.667Z,25.90
2023-06-23T02:30:20.596Z,25.92
2023-06-23T02:35:22.612Z,25.97
2023-06-23T02:40:25.479Z,25.89
2023-06-23T02:45:29.284Z,25.93
2023-06-23T02:50:33.679Z,25.94
2023-06-23T02:55:38.606Z,25.95
2023-06-23T03:00:40.046Z,25.92
2023-06-23T03:05:41.596Z,25.97
2023-06-23T03:10:43.045Z,25.94
2023-06-23T03:15:45.690Z,25.93
2023-06-23T03:20:51.536Z,25.87
2023-06-23T03:25:53.080Z,25.91
2023-06-23T03:31:07.123Z,25.92
2023-06-23T03:36:12.307Z,25.88
2023-06-23T03:41:14.327Z,25.90
2023-06-23T03:46:24.647Z,25.87
2023-06-23T03:51:26.519Z,25.94
2023-06-23T03:56:27.949Z,25.93
2023-06-23T04:01:29.609Z,25.89
2023-06-23T04:06:31.115Z,25.90
2023-06-23T04:11:32.548Z,25.91
2023-06-23T04:16:36.006Z,25.89
2023-06-23T04:21:37.525Z,25.89
2023-06-23T04:26:39.421Z,25.82
2023-06-23T04:31:40.908Z,25.86
2023-06-23T04:36:46.791Z,25.87
2023-06-23T04:41:49.576Z,25.85
2023-06-23T04:46:51.401Z,25.84
2023-06-23T04:51:53.490Z,25.89
2023-06-23T04:57:01.189Z,25.91
2023-06-23T05:02:03.523Z,25.95
2023-06-23T05:07:05.233Z,26.00
2023-06-23T05:12:07.573Z,25.95
2023-06-23T05:17:11.156Z,26.08
2023-06-23T05:22:17.618Z,26.18
2023-06-23T05:27:24.530Z,26.25
2023-06-23T05:32:27.269Z,26.30
2023-06-23T05:37:28.711Z,26.34
2023-06-23T05:42:33.658Z,26.39
2023-06-23T05:47:37.098Z,26.44
2023-06-23T05:52:38.562Z,26.47
2023-06-23T05:57:40.045Z,26.46
2023-06-23T06:02:44.302Z,26.55
2023-06-23T06:07:46.270Z,26.57
2023-06-23T06:12:50.289Z,26.61
2023-06-23T06:17:52.698Z,26.60
2023-06-23T06:23:00.126Z,26.60
2023-06-23T06:28:10.038Z,26.65
2023-06-23T06:33:12.435Z,26.61
2023-06-23T06:38:13.873Z,26.71
2023-06-23T06:43:15.317Z,26.72
2023-06-23T06:48:16.792Z,26.77
2023-06-23T06:53:18.322Z,26.73
2023-06-23T06:58:19.772Z,26.81
2023-06-23T07:03:21.436Z,26.75
2023-06-23T07:08:23.004Z,26.79
2023-06-23T07:13:24.441Z,26.87
2023-06-23T07:18:25.984Z,26.94
2023-06-23T07:23:27.452Z,27.04
2023-06-23T07:28:28.883Z,27.19
2023-06-23T07:33:30.456Z,27.27
2023-06-23T07:38:32.560Z,27.36
2023-06-23T07:43:34.046Z,27.48
2023-06-23T07:48:35.490Z,27.51
2023-06-23T07:53:37.748Z,27.55
2023-06-23T07:58:42.550Z,27.55
2023-06-23T08:03:48.136Z,27.59
2023-06-23T08:08:49.999Z,27.55
2023-06-23T08:13:51.794Z,27.60
2023-06-23T08:18:53.329Z,27.58
2023-06-23T08:23:54.764Z,27.58
2023-06-23T08:28:56.205Z,27.57
2023-06-23T08:33:57.652Z,27.58
2023-06-23T08:38:59.467Z,27.63
2023-06-23T08:44:01.241Z,27.55
2023-06-23T08:49:06.371Z,27.54
2023-06-23T08:54:07.796Z,27.47
2023-06-23T08:59:09.303Z,27.43
2023-06-23T09:04:12.218Z,27.41
2023-06-23T09:09:13.991Z,27.50
2023-06-23T09:14:15.429Z,27.47
2023-06-23T09:19:18.674Z,27.48
2023-06-23T09:24:21.112Z,27.45
2023-06-23T09:29:23.698Z,27.52
2023-06-23T09:34:26.668Z,27.44
2023-06-23T09:39:28.090Z,27.46
2023-06-23T09:44:36.783Z,27.55
2023-06-23T09:49:41.904Z,27.55
2023-06-23T09:54:43.413Z,27.53
2023-06-23T09:59:45.712Z,27.58
2023-06-23T10:04:49.183Z,27.55
2023-06-23T10:09:53.161Z,27.58
2023-06-23T10:14:57.461Z,27.57
2023-06-23T10:19:58.868Z,27.56
2023-06-23T10:25:00.283Z,27.48
2023-06-23T10:30:01.849Z,27.47
2023-06-23T10:35:09.437Z,27.42
2023-06-23T10:40:12.000Z,27.40
2023-06-23T10:45:13.415Z,27.35
2023-06-23T10:50:14.867Z,27.35
2023-06-23T10:55:36.017Z,27.32
2023-06-23T11:00:37.792Z,27.27
2023-06-23T11:05:43.456Z,27.26
2023-06-23T11:10:52.485Z,27.26
2023-06-23T11:15:55.252Z,27.22
2023-06-23T11:21:02.397Z,27.19
2023-06-23T11:26:03.824Z,27.20
2023-06-23T11:31:14.893Z,27.17
2023-06-23T11:36:16.815Z,27.21
2023-06-23T11:41:34.570Z,27.19
2023-06-23T11:46:36.569Z,27.21
2023-06-23T11:51:38.006Z,27.19
2023-06-23T11:56:41.952Z,27.18
2023-06-23T12:01:43.382Z,27.20
2023-06-23T12:06:44.891Z,27.15
2023-06-23T12:11:46.526Z,27.09
2023-06-23T12:16:48.008Z,27.02
2023-06-23T12:21:49.445Z,26.99
2023-06-23T12:26:52.686Z,27.03
2023-06-23T12:31:56.054Z,27.07
2023-06-23T12:37:15.419Z,27.11
2023-06-23T12:42:20.518Z,27.00
2023-06-23T12:47:22.063Z,27.01
2023-06-23T12:52:23.555Z,26.97
2023-06-23T12:57:25.040Z,26.96
2023-06-23T13:02:26.529Z,26.97
2023-06-23T13:07:28.044Z,27.01
2023-06-23T13:12:29.496Z,26.94
2023-06-23T13:17:31.901Z,26.89
2023-06-23T13:22:33.446Z,26.69
2023-06-23T13:27:34.860Z,26.71
2023-06-23T13:32:36.375Z,26.71
2023-06-23T13:37:40.587Z,26.65
2023-06-23T13:42:42.744Z,26.66
2023-06-23T13:47:44.175Z,26.62
2023-06-23T13:52:45.880Z,26.60
2023-06-23T13:57:47.322Z,26.59
2023-06-23T14:02:48.933Z,26.52
2023-06-23T14:07:50.487Z,26.50
2023-06-23T14:12:53.400Z,26.48
2023-06-23T14:17:54.921Z,26.38
2023-06-23T14:22:56.347Z,26.42
2023-06-23T14:27:59.103Z,26.40
2023-06-23T14:33:03.233Z,26.36
2023-06-23T14:38:06.506Z,26.35
2023-06-23T14:43:07.969Z,26.36
2023-06-23T14:48:09.465Z,26.26
2023-06-23T14:53:11.357Z,26.31
2023-06-23T14:58:12.820Z,26.32
2023-06-23T15:03:14.669Z,26.29
2023-06-23T15:08:16.185Z,26.25
2023-06-23T15:13:17.653Z,26.24
2023-06-23T15:18:19.963Z,26.20
2023-06-23T15:23:22.833Z,26.17
2023-06-23T15:28:31.092Z,26.17
2023-06-23T15:33:32.508Z,26.11
2023-06-23T15:38:34.221Z,26.13
2023-06-23T15:43:35.662Z,26.20
2023-06-23T15:48:37.432Z,26.13
2023-06-23T15:53:39.114Z,26.11
2023-06-23T15:58:40.558Z,26.13
2023-06-23T16:03:42.220Z,26.09
2023-06-23T16:08:44.760Z,26.08
2023-06-23T16:13:46.238Z,26.07
2023-06-23T16:18:47.664Z,26.07
2023-06-23T16:23:49.074Z,26.03
2023-06-23T16:28:50.514Z,26.18
2023-06-23T16:33:52.107Z,26.19
2023-06-23T16:38:53.548Z,26.40
2023-06-23T16:43:55.102Z,26.38
2023-06-23T16:48:56.587Z,26.46
2023-06-23T16:53:58.010Z,26.52
2023-06-23T16:58:59.519Z,26.54
2023-06-23T17:04:01.108Z,26.52
2023-06-23T17:09:02.700Z,26.60
2023-06-23T17:14:04.140Z,26.60
2023-06-23T17:19:05.566Z,26.63
2023-06-23T17:24:07.038Z,26.54
2023-06-23T17:29:08.467Z,26.34
2023-06-23T17:34:10.748Z,26.25
2023-06-23T17:39:12.201Z,26.16
2023-06-23T17:44:13.621Z,26.04
2023-06-23T17:49:15.299Z,26.00
2023-06-23T17:54:16.724Z,25.91
2023-06-23T17:59:18.164Z,25.84
2023-06-23T18:04:19.578Z,25.61
2023-06-23T18:09:21.040Z,25.59
2023-06-23T18:14:22.514Z,25.53
2023-06-23T18:19:25.549Z,25.45
2023-06-23T18:24:27.136Z,25.34
2023-06-23T18:29:28.573Z,25.26
2023-06-23T18:34:30.101Z,25.22
2023-06-23T18:39:31.514Z,25.13
2023-06-23T18:44:32.958Z,25.10
2023-06-23T18:49:34.399Z,25.07
2023-06-23T18:54:35.858Z,25.11
2023-06-23T18:59:37.287Z,25.15
2023-06-23T19:04:38.720Z,25.08
2023-06-23T19:09:40.379Z,25.01
2023-06-23T19:14:42.588Z,25.05
2023-06-23T19:19:44.181Z,24.99
2023-06-23T19:24:45.610Z,25.08
2023-06-23T19:29:47.033Z,25.01
2023-06-23T19:34:48.465Z,25.00
2023-06-23T19:39:59.172Z,25.02
2023-06-23T19:45:02.223Z,24.98
2023-06-23T19:50:03.723Z,24.99
2023-06-23T19:55:05.208Z,24.96
2023-06-23T20:00:07.506Z,24.90
2023-06-23T20:05:09.821Z,24.89
2023-06-23T20:10:11.324Z,24.87
2023-06-23T20:15:12.780Z,24.90
2023-06-23T20:20:14.202Z,24.90
2023-06-23T20:25:15.794Z,24.85
2023-06-23T20:30:17.227Z,24.91
2023-06-23T20:35:18.928Z,24.85
2023-06-23T20:40:20.360Z,24.78
2023-06-23T20:45:23.816Z,24.83
2023-06-23T20:50:25.288Z,24.81
2023-06-23T20:55:26.699Z,24.81
2023-06-23T21:00:28.117Z,24.78
2023-06-23T21:05:29.574Z,24.82
2023-06-23T21:10:31.063Z,24.81
2023-06-23T21:15:32.767Z,24.82
2023-06-23T21:20:34.530Z,24.81
2023-06-23T21:25:36.219Z,24.83
2023-06-23T21:30:38.237Z,24.78
2023-06-23T21:35:41.283Z,24.82
2023-06-23T21:40:44.006Z,24.87
2023-06-23T21:45:45.432Z,24.90
2023-06-23T21:50:49.939Z,24.91
2023-06-23T21:55:51.411Z,24.93
2023-06-23T22:00:52.848Z,24.86
2023-06-23T22:05:54.274Z,24.94
2023-06-23T22:10:55.726Z,24.94
2023-06-23T22:15:58.060Z,24.89
2023-06-23T22:20:59.525Z,24.88
2023-06-23T22:26:00.945Z,24.89
2023-06-23T22:31:06.608Z,24.93
2023-06-23T22:36:08.218Z,24.83
2023-06-23T22:41:09.663Z,24.79
2023-06-23T22:46:11.133Z,24.82
2023-06-23T22:51:12.609Z,24.77
2023-06-23T22:56:14.099Z,24.85
2023-06-23T23:01:15.564Z,24.86
2023-06-23T23:06:17.939Z,24.76
2023-06-23T23:11:19.412Z,24.77
2023-06-23T23:16:26.330Z,24.78
2023-06-23T23:21:27.778Z,24.82
2023-06-23T23:26:30.330Z,24.76
2023-06-23T23:31:32.736Z,24.80
2023-06-23T23:36:34.697Z,24.81
2023-06-23T23:41:36.136Z,24.79
2023-06-23T23:46:37.649Z,24.84
2023-06-23T23:51:39.093Z,24.82
2023-06-23T23:56:40.520Z,24.83
